sensor_id;sensor_type;location;lat;lon;timestamp;P1;durP1;ratioP1;P2;durP2;ratioP2
31112;SDS011;17763;48.730;9.136;2022-09-13T00:01:25;3.28;;;1.95;;
31112;SDS011;17763;48.730;9.136;2022-09-13T00:03:53;2.53;;;1.85;;
31112;SDS011;17763;48.730;9.136;2022-09-13T00:06:19;5.35;;;2.33;;
31112;SDS011;17763;48.730;9.136;2022-09-13T00:08:45;2.67;;;2.03;;
31112;SDS011;17763;48.730;9.136;2022-09-13T00:11:16;3.17;;;2.10;;
31112;SDS011;17763;48.730;9.136;2022-09-13T00:13:43;2.40;;;2.20;;
31112;SDS011;17763;48.730;9.136;2022-09-13T00:16:15;1.90;;;1.80;;
31112;SDS011;17763;48.730;9.136;2022-09-13T00:18:42;2.35;;;2.10;;
31112;SDS011;17763;48.730;9.136;2022-09-13T00:21:09;3.00;;;2.25;;
31112;SDS011;17763;48.730;9.136;2022-09-13T00:23:37;3.40;;;2.33;;
31112;SDS011;17763;48.730;9.136;2022-09-13T00:26:08;2.60;;;2.40;;
31112;SDS011;17763;48.730;9.136;2022-09-13T00:28:37;1.80;;;1.70;;
31112;SDS011;17763;48.730;9.136;2022-09-13T00:31:06;1.70;;;1.60;;
31112;SDS011;17763;48.730;9.136;2022-09-13T00:33:36;2.63;;;2.40;;
31112;SDS011;17763;48.730;9.136;2022-09-13T00:36:06;3.60;;;3.00;;
31112;SDS011;17763;48.730;9.136;2022-09-13T00:38:34;2.53;;;2.33;;
31112;SDS011;17763;48.730;9.136;2022-09-13T00:41:04;1.88;;;1.77;;
31112;SDS011;17763;48.730;9.136;2022-09-13T00:43:41;1.95;;;1.85;;
31112;SDS011;17763;48.730;9.136;2022-09-13T00:46:12;3.92;;;2.15;;
31112;SDS011;17763;48.730;9.136;2022-09-13T00:48:49;2.25;;;1.98;;
31112;SDS011;17763;48.730;9.136;2022-09-13T00:51:22;2.78;;;1.50;;
31112;SDS011;17763;48.730;9.136;2022-09-13T00:53:49;1.73;;;1.63;;
31112;SDS011;17763;48.730;9.136;2022-09-13T00:56:27;2.85;;;2.20;;
31112;SDS011;17763;48.730;9.136;2022-09-13T01:01:39;2.22;;;2.03;;
31112;SDS011;17763;48.730;9.136;2022-09-13T01:04:11;2.10;;;1.92;;
31112;SDS011;17763;48.730;9.136;2022-09-13T01:06:37;1.85;;;1.75;;
31112;SDS011;17763;48.730;9.136;2022-09-13T01:09:07;2.90;;;2.70;;
31112;SDS011;17763;48.730;9.136;2022-09-13T01:14:23;2.25;;;1.80;;
31112;SDS011;17763;48.730;9.136;2022-09-13T01:16:51;1.67;;;1.58;;
31112;SDS011;17763;48.730;9.136;2022-09-13T01:19:18;2.33;;;1.50;;
31112;SDS011;17763;48.730;9.136;2022-09-13T01:26:55;1.80;;;1.67;;
31112;SDS011;17763;48.730;9.136;2022-09-13T01:40:55;1.42;;;1.33;;
31112;SDS011;17763;48.730;9.136;2022-09-13T01:43:33;2.10;;;1.52;;
31112;SDS011;17763;48.730;9.136;2022-09-13T01:46:22;1.42;;;1.30;;
31112;SDS011;17763;48.730;9.136;2022-09-13T01:59:53;1.60;;;1.50;;
31112;SDS011;17763;48.730;9.136;2022-09-13T02:05:16;2.45;;;2.22;;
31112;SDS011;17763;48.730;9.136;2022-09-13T02:07:52;1.92;;;1.83;;
31112;SDS011;17763;48.730;9.136;2022-09-13T02:10:28;2.13;;;1.90;;
31112;SDS011;17763;48.730;9.136;2022-09-13T02:13:06;2.88;;;1.90;;
31112;SDS011;17763;48.730;9.136;2022-09-13T02:15:39;3.72;;;1.90;;
31112;SDS011;17763;48.730;9.136;2022-09-13T02:18:12;1.75;;;1.65;;
31112;SDS011;17763;48.730;9.136;2022-09-13T02:20:45;2.05;;;1.65;;
31112;SDS011;17763;48.730;9.136;2022-09-13T02:25:46;5.88;;;1.85;;
31112;SDS011;17763;48.730;9.136;2022-09-13T02:28:15;1.92;;;1.80;;
31112;SDS011;17763;48.730;9.136;2022-09-13T02:30:48;2.90;;;1.83;;
31112;SDS011;17763;48.730;9.136;2022-09-13T02:36:01;3.30;;;1.85;;
31112;SDS011;17763;48.730;9.136;2022-09-13T02:46:54;2.17;;;1.55;;
31112;SDS011;17763;48.730;9.136;2022-09-13T02:52:08;2.08;;;1.90;;
31112;SDS011;17763;48.730;9.136;2022-09-13T03:00:31;1.95;;;1.80;;
31112;SDS011;17763;48.730;9.136;2022-09-13T03:02:57;3.30;;;1.95;;
31112;SDS011;17763;48.730;9.136;2022-09-13T03:05:27;1.83;;;1.73;;
31112;SDS011;17763;48.730;9.136;2022-09-13T03:07:52;2.00;;;1.90;;
31112;SDS011;17763;48.730;9.136;2022-09-13T03:10:19;2.80;;;1.90;;
31112;SDS011;17763;48.730;9.136;2022-09-13T03:12:57;2.33;;;1.77;;
31112;SDS011;17763;48.730;9.136;2022-09-13T03:21:07;2.10;;;1.90;;
31112;SDS011;17763;48.730;9.136;2022-09-13T03:23:47;2.28;;;2.00;;
31112;SDS011;17763;48.730;9.136;2022-09-13T03:32:23;2.40;;;2.03;;
31112;SDS011;17763;48.730;9.136;2022-09-13T03:43:03;2.28;;;2.17;;
31112;SDS011;17763;48.730;9.136;2022-09-13T03:45:45;2.53;;;1.80;;
31112;SDS011;17763;48.730;9.136;2022-09-13T03:48:20;4.53;;;2.08;;
31112;SDS011;17763;48.730;9.136;2022-09-13T03:50:47;6.78;;;2.20;;
31112;SDS011;17763;48.730;9.136;2022-09-13T03:53:14;2.40;;;1.88;;
31112;SDS011;17763;48.730;9.136;2022-09-13T03:55:47;2.92;;;2.30;;
31112;SDS011;17763;48.730;9.136;2022-09-13T03:58:14;2.30;;;2.20;;
31112;SDS011;17763;48.730;9.136;2022-09-13T04:00:43;1.98;;;1.83;;
31112;SDS011;17763;48.730;9.136;2022-09-13T04:03:09;2.15;;;1.98;;
31112;SDS011;17763;48.730;9.136;2022-09-13T04:05:35;4.10;;;3.10;;
31112;SDS011;17763;48.730;9.136;2022-09-13T04:08:02;2.45;;;2.08;;
31112;SDS011;17763;48.730;9.136;2022-09-13T04:10:34;2.38;;;2.17;;
31112;SDS011;17763;48.730;9.136;2022-09-13T04:13:01;2.42;;;2.30;;
31112;SDS011;17763;48.730;9.136;2022-09-13T04:15:29;3.20;;;2.08;;
31112;SDS011;17763;48.730;9.136;2022-09-13T04:17:55;3.47;;;2.65;;
31112;SDS011;17763;48.730;9.136;2022-09-13T04:20:21;3.95;;;2.38;;
31112;SDS011;17763;48.730;9.136;2022-09-13T04:22:52;2.60;;;2.40;;
31112;SDS011;17763;48.730;9.136;2022-09-13T04:25:21;3.17;;;2.03;;
31112;SDS011;17763;48.730;9.136;2022-09-13T04:27:52;4.00;;;2.55;;
31112;SDS011;17763;48.730;9.136;2022-09-13T04:30:19;2.22;;;2.13;;
31112;SDS011;17763;48.730;9.136;2022-09-13T04:32:45;3.45;;;2.13;;
31112;SDS011;17763;48.730;9.136;2022-09-13T04:35:15;3.15;;;2.30;;
31112;SDS011;17763;48.730;9.136;2022-09-13T04:37:41;2.67;;;2.10;;
31112;SDS011;17763;48.730;9.136;2022-09-13T04:40:08;2.40;;;2.30;;
31112;SDS011;17763;48.730;9.136;2022-09-13T04:42:36;2.88;;;2.30;;
31112;SDS011;17763;48.730;9.136;2022-09-13T04:45:02;2.42;;;2.22;;
31112;SDS011;17763;48.730;9.136;2022-09-13T04:47:28;3.90;;;2.13;;
31112;SDS011;17763;48.730;9.136;2022-09-13T04:49:57;4.47;;;2.90;;
31112;SDS011;17763;48.730;9.136;2022-09-13T04:52:23;3.00;;;2.50;;
31112;SDS011;17763;48.730;9.136;2022-09-13T04:54:51;3.15;;;2.47;;
31112;SDS011;17763;48.730;9.136;2022-09-13T04:57:17;2.95;;;2.72;;
31112;SDS011;17763;48.730;9.136;2022-09-13T04:59:42;3.47;;;3.17;;
31112;SDS011;17763;48.730;9.136;2022-09-13T05:02:11;4.07;;;3.03;;
31112;SDS011;17763;48.730;9.136;2022-09-13T05:04:38;3.25;;;3.03;;
31112;SDS011;17763;48.730;9.136;2022-09-13T05:07:04;7.43;;;4.38;;
31112;SDS011;17763;48.730;9.136;2022-09-13T05:09:32;4.63;;;3.80;;
31112;SDS011;17763;48.730;9.136;2022-09-13T05:11:57;3.65;;;2.38;;
31112;SDS011;17763;48.730;9.136;2022-09-13T05:14:24;3.17;;;2.38;;
31112;SDS011;17763;48.730;9.136;2022-09-13T05:16:52;4.32;;;2.83;;
31112;SDS011;17763;48.730;9.136;2022-09-13T05:19:18;3.33;;;2.83;;
31112;SDS011;17763;48.730;9.136;2022-09-13T05:21:46;4.25;;;2.40;;
31112;SDS011;17763;48.730;9.136;2022-09-13T05:24:14;2.65;;;2.25;;
31112;SDS011;17763;48.730;9.136;2022-09-13T05:26:39;2.53;;;2.33;;
31112;SDS011;17763;48.730;9.136;2022-09-13T05:29:05;2.58;;;2.38;;
31112;SDS011;17763;48.730;9.136;2022-09-13T05:31:32;4.13;;;2.67;;
31112;SDS011;17763;48.730;9.136;2022-09-13T05:34:07;4.53;;;2.88;;
31112;SDS011;17763;48.730;9.136;2022-09-13T05:36:39;2.72;;;2.47;;
31112;SDS011;17763;48.730;9.136;2022-09-13T05:39:06;3.65;;;2.80;;
31112;SDS011;17763;48.730;9.136;2022-09-13T05:41:35;3.92;;;2.75;;
31112;SDS011;17763;48.730;9.136;2022-09-13T05:44:01;5.72;;;3.22;;
31112;SDS011;17763;48.730;9.136;2022-09-13T05:46:29;6.50;;;2.35;;
31112;SDS011;17763;48.730;9.136;2022-09-13T05:48:57;3.13;;;2.83;;
31112;SDS011;17763;48.730;9.136;2022-09-13T05:51:25;3.00;;;2.70;;
31112;SDS011;17763;48.730;9.136;2022-09-13T05:53:53;3.85;;;2.75;;
31112;SDS011;17763;48.730;9.136;2022-09-13T05:56:24;2.92;;;2.72;;
31112;SDS011;17763;48.730;9.136;2022-09-13T05:58:54;3.10;;;2.63;;
31112;SDS011;17763;48.730;9.136;2022-09-13T06:01:20;7.38;;;3.10;;
31112;SDS011;17763;48.730;9.136;2022-09-13T06:03:53;4.15;;;2.63;;
31112;SDS011;17763;48.730;9.136;2022-09-13T06:06:20;5.38;;;2.92;;
31112;SDS011;17763;48.730;9.136;2022-09-13T06:08:52;2.90;;;2.70;;
31112;SDS011;17763;48.730;9.136;2022-09-13T06:11:19;3.47;;;2.40;;
31112;SDS011;17763;48.730;9.136;2022-09-13T06:13:47;4.88;;;3.03;;
31112;SDS011;17763;48.730;9.136;2022-09-13T06:16:15;4.65;;;3.00;;
31112;SDS011;17763;48.730;9.136;2022-09-13T06:18:41;3.13;;;2.88;;
31112;SDS011;17763;48.730;9.136;2022-09-13T06:21:08;3.63;;;2.70;;
31112;SDS011;17763;48.730;9.136;2022-09-13T06:23:36;3.13;;;2.80;;
31112;SDS011;17763;48.730;9.136;2022-09-13T06:26:07;4.45;;;2.63;;
31112;SDS011;17763;48.730;9.136;2022-09-13T06:28:34;5.35;;;3.00;;
31112;SDS011;17763;48.730;9.136;2022-09-13T06:33:30;3.47;;;2.42;;
31112;SDS011;17763;48.730;9.136;2022-09-13T06:36:04;4.03;;;2.90;;
31112;SDS011;17763;48.730;9.136;2022-09-13T06:38:32;4.53;;;2.80;;
31112;SDS011;17763;48.730;9.136;2022-09-13T06:41:01;4.35;;;2.83;;
31112;SDS011;17763;48.730;9.136;2022-09-13T06:43:34;4.82;;;2.70;;
31112;SDS011;17763;48.730;9.136;2022-09-13T06:46:04;4.55;;;3.30;;
31112;SDS011;17763;48.730;9.136;2022-09-13T06:48:35;2.75;;;2.55;;
31112;SDS011;17763;48.730;9.136;2022-09-13T06:51:08;4.03;;;2.92;;
31112;SDS011;17763;48.730;9.136;2022-09-13T06:53:38;3.60;;;3.20;;
31112;SDS011;17763;48.730;9.136;2022-09-13T06:56:09;4.82;;;2.97;;
31112;SDS011;17763;48.730;9.136;2022-09-13T06:59:09;5.43;;;3.25;;
31112;SDS011;17763;48.730;9.136;2022-09-13T07:01:39;6.38;;;3.35;;
31112;SDS011;17763;48.730;9.136;2022-09-13T07:04:08;6.07;;;3.60;;
31112;SDS011;17763;48.730;9.136;2022-09-13T07:06:39;19.08;;;3.78;;
31112;SDS011;17763;48.730;9.136;2022-09-13T07:09:08;9.35;;;3.40;;
31112;SDS011;17763;48.730;9.136;2022-09-13T07:14:05;9.38;;;3.38;;
31112;SDS011;17763;48.730;9.136;2022-09-13T07:16:35;4.53;;;2.78;;
31112;SDS011;17763;48.730;9.136;2022-09-13T07:19:03;6.90;;;3.93;;
31112;SDS011;17763;48.730;9.136;2022-09-13T07:21:30;8.57;;;4.25;;
31112;SDS011;17763;48.730;9.136;2022-09-13T07:23:57;9.40;;;3.38;;
31112;SDS011;17763;48.730;9.136;2022-09-13T07:26:23;10.20;;;3.58;;
31112;SDS011;17763;48.730;9.136;2022-09-13T07:28:51;6.43;;;2.90;;
31112;SDS011;17763;48.730;9.136;2022-09-13T07:31:23;5.50;;;3.45;;
31112;SDS011;17763;48.730;9.136;2022-09-13T07:33:56;5.05;;;3.33;;
31112;SDS011;17763;48.730;9.136;2022-09-13T07:36:25;5.95;;;3.40;;
31112;SDS011;17763;48.730;9.136;2022-09-13T07:38:52;7.18;;;3.55;;
31112;SDS011;17763;48.730;9.136;2022-09-13T07:41:19;12.35;;;4.38;;
31112;SDS011;17763;48.730;9.136;2022-09-13T07:43:48;13.15;;;5.10;;
31112;SDS011;17763;48.730;9.136;2022-09-13T07:46:16;8.95;;;4.65;;
31112;SDS011;17763;48.730;9.136;2022-09-13T07:48:46;11.73;;;4.25;;
31112;SDS011;17763;48.730;9.136;2022-09-13T07:51:14;7.35;;;3.85;;
31112;SDS011;17763;48.730;9.136;2022-09-13T07:53:45;12.63;;;3.88;;
31112;SDS011;17763;48.730;9.136;2022-09-13T07:56:13;9.18;;;3.10;;
31112;SDS011;17763;48.730;9.136;2022-09-13T07:58:40;7.97;;;3.50;;
31112;SDS011;17763;48.730;9.136;2022-09-13T08:01:16;4.75;;;3.13;;
31112;SDS011;17763;48.730;9.136;2022-09-13T08:03:50;6.70;;;3.92;;
31112;SDS011;17763;48.730;9.136;2022-09-13T08:06:16;6.40;;;2.97;;
31112;SDS011;17763;48.730;9.136;2022-09-13T08:08:45;5.97;;;3.65;;
31112;SDS011;17763;48.730;9.136;2022-09-13T08:11:13;9.30;;;3.70;;
31112;SDS011;17763;48.730;9.136;2022-09-13T08:13:48;6.85;;;3.80;;
31112;SDS011;17763;48.730;9.136;2022-09-13T08:16:16;10.15;;;3.20;;
31112;SDS011;17763;48.730;9.136;2022-09-13T08:18:49;15.03;;;2.77;;
31112;SDS011;17763;48.730;9.136;2022-09-13T08:23:42;9.75;;;3.03;;
31112;SDS011;17763;48.730;9.136;2022-09-13T08:26:13;6.28;;;3.05;;
31112;SDS011;17763;48.730;9.136;2022-09-13T08:28:39;8.48;;;2.92;;
31112;SDS011;17763;48.730;9.136;2022-09-13T08:31:09;5.22;;;2.90;;
31112;SDS011;17763;48.730;9.136;2022-09-13T08:33:41;5.80;;;3.05;;
31112;SDS011;17763;48.730;9.136;2022-09-13T08:36:10;11.57;;;2.45;;
31112;SDS011;17763;48.730;9.136;2022-09-13T08:38:45;4.95;;;2.88;;
31112;SDS011;17763;48.730;9.136;2022-09-13T08:41:32;7.60;;;2.75;;
31112;SDS011;17763;48.730;9.136;2022-09-13T08:49:48;3.00;;;2.67;;
31112;SDS011;17763;48.730;9.136;2022-09-13T08:52:25;5.00;;;2.38;;
31112;SDS011;17763;48.730;9.136;2022-09-13T08:55:22;2.53;;;2.30;;
31112;SDS011;17763;48.730;9.136;2022-09-13T08:57:59;4.15;;;2.17;;
31112;SDS011;17763;48.730;9.136;2022-09-13T09:03:13;4.70;;;2.55;;
31112;SDS011;17763;48.730;9.136;2022-09-13T09:05:49;10.70;;;3.40;;
31112;SDS011;17763;48.730;9.136;2022-09-13T09:08:23;5.57;;;2.47;;
31112;SDS011;17763;48.730;9.136;2022-09-13T09:17:04;7.18;;;2.53;;
31112;SDS011;17763;48.730;9.136;2022-09-13T09:19:44;7.95;;;2.08;;
31112;SDS011;17763;48.730;9.136;2022-09-13T09:22:16;5.45;;;2.65;;
31112;SDS011;17763;48.730;9.136;2022-09-13T09:24:47;4.68;;;2.50;;
31112;SDS011;17763;48.730;9.136;2022-09-13T09:27:18;9.00;;;2.55;;
31112;SDS011;17763;48.730;9.136;2022-09-13T09:29:47;2.78;;;2.00;;
31112;SDS011;17763;48.730;9.136;2022-09-13T09:37:22;4.25;;;1.98;;
31112;SDS011;17763;48.730;9.136;2022-09-13T09:39:51;3.28;;;2.70;;
31112;SDS011;17763;48.730;9.136;2022-09-13T09:42:26;4.97;;;2.40;;
31112;SDS011;17763;48.730;9.136;2022-09-13T09:44:58;2.38;;;1.95;;
31112;SDS011;17763;48.730;9.136;2022-09-13T09:47:46;10.80;;;6.55;;
31112;SDS011;17763;48.730;9.136;2022-09-13T09:50:22;5.78;;;4.47;;
31112;SDS011;17763;48.730;9.136;2022-09-13T09:53:00;2.60;;;2.25;;
31112;SDS011;17763;48.730;9.136;2022-09-13T09:55:30;6.40;;;3.45;;
31112;SDS011;17763;48.730;9.136;2022-09-13T09:58:17;2.63;;;1.77;;
31112;SDS011;17763;48.730;9.136;2022-09-13T10:01:02;6.13;;;1.77;;
31112;SDS011;17763;48.730;9.136;2022-09-13T10:03:30;3.42;;;1.25;;
31112;SDS011;17763;48.730;9.136;2022-09-13T10:06:33;1.83;;;1.60;;
31112;SDS011;17763;48.730;9.136;2022-09-13T10:09:04;8.90;;;2.75;;
31112;SDS011;17763;48.730;9.136;2022-09-13T10:11:37;2.53;;;1.90;;
31112;SDS011;17763;48.730;9.136;2022-09-13T10:14:03;1.63;;;1.50;;
31112;SDS011;17763;48.730;9.136;2022-09-13T10:16:48;2.45;;;1.00;;
31112;SDS011;17763;48.730;9.136;2022-09-13T10:19:50;1.38;;;1.13;;
31112;SDS011;17763;48.730;9.136;2022-09-13T10:22:22;1.42;;;1.25;;
31112;SDS011;17763;48.730;9.136;2022-09-13T10:24:49;2.38;;;2.17;;
31112;SDS011;17763;48.730;9.136;2022-09-13T10:27:18;1.80;;;1.70;;
31112;SDS011;17763;48.730;9.136;2022-09-13T10:29:56;2.10;;;1.45;;
31112;SDS011;17763;48.730;9.136;2022-09-13T10:32:25;1.45;;;1.30;;
31112;SDS011;17763;48.730;9.136;2022-09-13T10:34:52;1.48;;;1.15;;
31112;SDS011;17763;48.730;9.136;2022-09-13T10:37:23;1.38;;;0.95;;
31112;SDS011;17763;48.730;9.136;2022-09-13T10:40:06;1.10;;;1.00;;
31112;SDS011;17763;48.730;9.136;2022-09-13T10:42:41;4.15;;;1.23;;
31112;SDS011;17763;48.730;9.136;2022-09-13T10:45:22;1.33;;;1.20;;
31112;SDS011;17763;48.730;9.136;2022-09-13T10:47:50;2.30;;;1.03;;
31112;SDS011;17763;48.730;9.136;2022-09-13T10:52:51;1.40;;;0.80;;
31112;SDS011;17763;48.730;9.136;2022-09-13T10:57:49;2.72;;;0.85;;
31112;SDS011;17763;48.730;9.136;2022-09-13T11:00:21;1.13;;;1.02;;
31112;SDS011;17763;48.730;9.136;2022-09-13T11:06:03;0.80;;;0.80;;
31112;SDS011;17763;48.730;9.136;2022-09-13T11:14:23;1.63;;;0.60;;
31112;SDS011;17763;48.730;9.136;2022-09-13T11:20:20;1.27;;;0.35;;
31112;SDS011;17763;48.730;9.136;2022-09-13T11:26:03;1.20;;;0.80;;
31112;SDS011;17763;48.730;9.136;2022-09-13T11:28:44;4.63;;;1.05;;
31112;SDS011;17763;48.730;9.136;2022-09-13T11:34:23;0.60;;;0.55;;
31112;SDS011;17763;48.730;9.136;2022-09-13T11:55:59;2.00;;;0.60;;
31112;SDS011;17763;48.730;9.136;2022-09-13T11:58:36;2.25;;;0.75;;
31112;SDS011;17763;48.730;9.136;2022-09-13T12:01:12;1.80;;;0.60;;
31112;SDS011;17763;48.730;9.136;2022-09-13T12:03:58;1.60;;;0.87;;
31112;SDS011;17763;48.730;9.136;2022-09-13T12:06:41;0.95;;;0.70;;
31112;SDS011;17763;48.730;9.136;2022-09-13T12:12:06;2.55;;;0.63;;
31112;SDS011;17763;48.730;9.136;2022-09-13T12:14:46;0.85;;;0.80;;
31112;SDS011;17763;48.730;9.136;2022-09-13T12:17:21;1.70;;;1.00;;
31112;SDS011;17763;48.730;9.136;2022-09-13T12:19:53;1.15;;;0.77;;
31112;SDS011;17763;48.730;9.136;2022-09-13T12:22:22;2.35;;;0.73;;
31112;SDS011;17763;48.730;9.136;2022-09-13T12:27:26;1.73;;;1.00;;
31112;SDS011;17763;48.730;9.136;2022-09-13T12:30:06;4.07;;;0.98;;
31112;SDS011;17763;48.730;9.136;2022-09-13T12:32:41;11.90;;;1.50;;
31112;SDS011;17763;48.730;9.136;2022-09-13T12:49:07;1.23;;;0.85;;
31112;SDS011;17763;48.730;9.136;2022-09-13T12:54:40;1.50;;;0.80;;
31112;SDS011;17763;48.730;9.136;2022-09-13T12:57:35;4.00;;;1.05;;
31112;SDS011;17763;48.730;9.136;2022-09-13T13:18:45;1.10;;;0.73;;
31112;SDS011;17763;48.730;9.136;2022-09-13T13:26:44;2.35;;;0.88;;
31112;SDS011;17763;48.730;9.136;2022-09-13T13:29:18;2.03;;;1.02;;
31112;SDS011;17763;48.730;9.136;2022-09-13T13:34:29;1.98;;;0.93;;
31112;SDS011;17763;48.730;9.136;2022-09-13T13:37:42;6.80;;;0.97;;
31112;SDS011;17763;48.730;9.136;2022-09-13T13:39:44;2.35;;;0.75;;
31112;SDS011;17763;48.730;9.136;2022-09-13T13:42:12;1.23;;;1.00;;
31112;SDS011;17763;48.730;9.136;2022-09-13T14:13:45;1.42;;;0.43;;
31112;SDS011;17763;48.730;9.136;2022-09-13T14:16:24;1.50;;;0.60;;
31112;SDS011;17763;48.730;9.136;2022-09-13T14:24:43;1.13;;;0.70;;
31112;SDS011;17763;48.730;9.136;2022-09-13T14:29:51;1.33;;;0.60;;
31112;SDS011;17763;48.730;9.136;2022-09-13T14:32:26;3.38;;;0.75;;
31112;SDS011;17763;48.730;9.136;2022-09-13T14:37:32;4.75;;;0.70;;
31112;SDS011;17763;48.730;9.136;2022-09-13T14:42:47;4.97;;;0.50;;
31112;SDS011;17763;48.730;9.136;2022-09-13T14:45:16;2.78;;;0.77;;
31112;SDS011;17763;48.730;9.136;2022-09-13T14:50:23;1.30;;;0.80;;
31112;SDS011;17763;48.730;9.136;2022-09-13T14:53:05;3.17;;;0.80;;
31112;SDS011;17763;48.730;9.136;2022-09-13T14:55:36;1.67;;;0.60;;
31112;SDS011;17763;48.730;9.136;2022-09-13T14:58:07;6.32;;;1.50;;
31112;SDS011;17763;48.730;9.136;2022-09-13T15:00:45;4.68;;;0.65;;
31112;SDS011;17763;48.730;9.136;2022-09-13T15:03:15;4.13;;;1.13;;
31112;SDS011;17763;48.730;9.136;2022-09-13T15:05:49;4.82;;;0.70;;
31112;SDS011;17763;48.730;9.136;2022-09-13T15:11:02;1.00;;;0.80;;
31112;SDS011;17763;48.730;9.136;2022-09-13T15:13:30;4.70;;;0.88;;
31112;SDS011;17763;48.730;9.136;2022-09-13T15:15:57;3.90;;;2.00;;
31112;SDS011;17763;48.730;9.136;2022-09-13T15:18:28;2.22;;;1.60;;
31112;SDS011;17763;48.730;9.136;2022-09-13T15:23:28;1.63;;;1.50;;
31112;SDS011;17763;48.730;9.136;2022-09-13T15:28:56;3.05;;;1.70;;
31112;SDS011;17763;48.730;9.136;2022-09-13T15:31:22;2.42;;;2.22;;
31112;SDS011;17763;48.730;9.136;2022-09-13T15:36:40;14.18;;;2.78;;
31112;SDS011;17763;48.730;9.136;2022-09-13T15:41:36;2.67;;;1.50;;
31112;SDS011;17763;48.730;9.136;2022-09-13T15:44:06;7.20;;;2.08;;
31112;SDS011;17763;48.730;9.136;2022-09-13T15:46:33;4.30;;;1.13;;
31112;SDS011;17763;48.730;9.136;2022-09-13T15:49:08;2.70;;;1.23;;
31112;SDS011;17763;48.730;9.136;2022-09-13T15:51:42;7.03;;;1.00;;
31112;SDS011;17763;48.730;9.136;2022-09-13T15:54:12;1.10;;;0.73;;
31112;SDS011;17763;48.730;9.136;2022-09-13T15:56:43;0.70;;;0.55;;
31112;SDS011;17763;48.730;9.136;2022-09-13T15:59:16;1.33;;;0.52;;
31112;SDS011;17763;48.730;9.136;2022-09-13T16:01:43;2.28;;;0.50;;
31112;SDS011;17763;48.730;9.136;2022-09-13T16:04:10;2.72;;;0.60;;
31112;SDS011;17763;48.730;9.136;2022-09-13T16:06:36;0.65;;;0.50;;
31112;SDS011;17763;48.730;9.136;2022-09-13T16:11:57;0.65;;;0.63;;
31112;SDS011;17763;48.730;9.136;2022-09-13T16:14:23;0.70;;;0.60;;
31112;SDS011;17763;48.730;9.136;2022-09-13T16:16:49;2.45;;;1.00;;
31112;SDS011;17763;48.730;9.136;2022-09-13T16:19:16;1.67;;;0.68;;
31112;SDS011;17763;48.730;9.136;2022-09-13T16:21:44;0.90;;;0.90;;
31112;SDS011;17763;48.730;9.136;2022-09-13T16:24:09;0.90;;;0.90;;
31112;SDS011;17763;48.730;9.136;2022-09-13T16:26:35;0.73;;;0.73;;
31112;SDS011;17763;48.730;9.136;2022-09-13T16:29:02;4.03;;;0.75;;
31112;SDS011;17763;48.730;9.136;2022-09-13T16:31:30;3.47;;;0.70;;
31112;SDS011;17763;48.730;9.136;2022-09-13T16:33:56;1.55;;;0.45;;
31112;SDS011;17763;48.730;9.136;2022-09-13T16:36:21;1.45;;;0.70;;
31112;SDS011;17763;48.730;9.136;2022-09-13T16:38:52;0.85;;;0.75;;
31112;SDS011;17763;48.730;9.136;2022-09-13T16:41:21;2.65;;;1.05;;
31112;SDS011;17763;48.730;9.136;2022-09-13T16:43:47;1.05;;;0.68;;
31112;SDS011;17763;48.730;9.136;2022-09-13T16:46:13;8.73;;;1.23;;
31112;SDS011;17763;48.730;9.136;2022-09-13T16:48:39;1.65;;;0.85;;
31112;SDS011;17763;48.730;9.136;2022-09-13T16:51:06;1.05;;;0.95;;
31112;SDS011;17763;48.730;9.136;2022-09-13T16:53:36;3.35;;;0.88;;
31112;SDS011;17763;48.730;9.136;2022-09-13T16:56:05;0.80;;;0.80;;
31112;SDS011;17763;48.730;9.136;2022-09-13T17:01:05;1.30;;;0.70;;
31112;SDS011;17763;48.730;9.136;2022-09-13T17:03:33;2.33;;;1.13;;
31112;SDS011;17763;48.730;9.136;2022-09-13T17:06:01;1.17;;;0.95;;
31112;SDS011;17763;48.730;9.136;2022-09-13T17:08:28;4.32;;;1.13;;
31112;SDS011;17763;48.730;9.136;2022-09-13T17:10:55;1.10;;;1.00;;
31112;SDS011;17763;48.730;9.136;2022-09-13T17:13:21;1.25;;;1.00;;
31112;SDS011;17763;48.730;9.136;2022-09-13T17:15:48;0.90;;;0.85;;
31112;SDS011;17763;48.730;9.136;2022-09-13T17:18:14;1.92;;;1.10;;
31112;SDS011;17763;48.730;9.136;2022-09-13T17:20:43;1.63;;;1.20;;
31112;SDS011;17763;48.730;9.136;2022-09-13T17:23:13;2.80;;;1.27;;
31112;SDS011;17763;48.730;9.136;2022-09-13T17:25:42;2.35;;;1.20;;
31112;SDS011;17763;48.730;9.136;2022-09-13T17:28:19;2.00;;;1.50;;
31112;SDS011;17763;48.730;9.136;2022-09-13T17:30:45;1.27;;;1.00;;
31112;SDS011;17763;48.730;9.136;2022-09-13T17:33:11;1.20;;;1.10;;
31112;SDS011;17763;48.730;9.136;2022-09-13T17:35:37;1.65;;;1.08;;
31112;SDS011;17763;48.730;9.136;2022-09-13T17:38:03;2.35;;;1.08;;
31112;SDS011;17763;48.730;9.136;2022-09-13T17:40:30;1.20;;;1.10;;
31112;SDS011;17763;48.730;9.136;2022-09-13T17:42:57;2.13;;;1.25;;
31112;SDS011;17763;48.730;9.136;2022-09-13T17:45:23;2.42;;;1.20;;
31112;SDS011;17763;48.730;9.136;2022-09-13T17:47:54;4.03;;;1.17;;
31112;SDS011;17763;48.730;9.136;2022-09-13T17:50:23;2.55;;;1.33;;
31112;SDS011;17763;48.730;9.136;2022-09-13T17:52:49;2.47;;;1.70;;
31112;SDS011;17763;48.730;9.136;2022-09-13T17:55:18;3.08;;;1.20;;
31112;SDS011;17763;48.730;9.136;2022-09-13T17:57:46;2.88;;;1.17;;
31112;SDS011;17763;48.730;9.136;2022-09-13T18:00:13;1.05;;;0.95;;
31112;SDS011;17763;48.730;9.136;2022-09-13T18:02:42;1.58;;;1.33;;
31112;SDS011;17763;48.730;9.136;2022-09-13T18:05:08;3.08;;;1.55;;
31112;SDS011;17763;48.730;9.136;2022-09-13T18:07:34;5.70;;;1.70;;
31112;SDS011;17763;48.730;9.136;2022-09-13T18:09:59;4.10;;;1.77;;
31112;SDS011;17763;48.730;9.136;2022-09-13T18:12:25;1.85;;;1.70;;
31112;SDS011;17763;48.730;9.136;2022-09-13T18:14:53;2.05;;;1.70;;
31112;SDS011;17763;48.730;9.136;2022-09-13T18:17:18;2.05;;;1.60;;
31112;SDS011;17763;48.730;9.136;2022-09-13T18:19:44;3.28;;;2.10;;
31112;SDS011;17763;48.730;9.136;2022-09-13T18:22:10;4.20;;;2.10;;
31112;SDS011;17763;48.730;9.136;2022-09-13T18:24:35;1.90;;;1.50;;
31112;SDS011;17763;48.730;9.136;2022-09-13T18:27:01;1.92;;;1.50;;
31112;SDS011;17763;48.730;9.136;2022-09-13T18:29:27;2.42;;;1.50;;
31112;SDS011;17763;48.730;9.136;2022-09-13T18:31:55;1.67;;;1.00;;
31112;SDS011;17763;48.730;9.136;2022-09-13T18:34:21;1.40;;;1.30;;
31112;SDS011;17763;48.730;9.136;2022-09-13T18:36:47;1.83;;;1.20;;
31112;SDS011;17763;48.730;9.136;2022-09-13T18:39:16;1.40;;;1.30;;
31112;SDS011;17763;48.730;9.136;2022-09-13T18:44:13;1.98;;;1.30;;
31112;SDS011;17763;48.730;9.136;2022-09-13T18:46:39;1.25;;;1.15;;
31112;SDS011;17763;48.730;9.136;2022-09-13T18:49:08;1.30;;;1.30;;
31112;SDS011;17763;48.730;9.136;2022-09-13T18:51:35;2.72;;;1.67;;
31112;SDS011;17763;48.730;9.136;2022-09-13T18:54:05;4.05;;;1.70;;
31112;SDS011;17763;48.730;9.136;2022-09-13T18:56:34;2.10;;;1.85;;
31112;SDS011;17763;48.730;9.136;2022-09-13T18:59:01;2.58;;;2.05;;
31112;SDS011;17763;48.730;9.136;2022-09-13T19:01:29;2.65;;;2.22;;
31112;SDS011;17763;48.730;9.136;2022-09-13T19:04:03;3.58;;;2.05;;
31112;SDS011;17763;48.730;9.136;2022-09-13T19:09:03;2.45;;;1.02;;
31112;SDS011;17763;48.730;9.136;2022-09-13T19:11:31;2.10;;;1.45;;
31112;SDS011;17763;48.730;9.136;2022-09-13T19:13:58;1.80;;;1.45;;
31112;SDS011;17763;48.730;9.136;2022-09-13T19:16:26;2.47;;;1.13;;
31112;SDS011;17763;48.730;9.136;2022-09-13T19:18:52;1.20;;;1.08;;
31112;SDS011;17763;48.730;9.136;2022-09-13T19:21:18;1.67;;;1.58;;
31112;SDS011;17763;48.730;9.136;2022-09-13T19:23:46;1.38;;;1.27;;
31112;SDS011;17763;48.730;9.136;2022-09-13T19:26:14;2.63;;;1.20;;
31112;SDS011;17763;48.730;9.136;2022-09-13T19:28:49;3.60;;;1.75;;
31112;SDS011;17763;48.730;9.136;2022-09-13T19:31:19;2.38;;;1.30;;
31112;SDS011;17763;48.730;9.136;2022-09-13T19:33:46;1.60;;;1.50;;